createdAt,value
2022-11-20T00:01:43.841Z,1.25
2022-11-20T00:04:14.358Z,1.58
2022-11-20T00:06:44.316Z,1.70
2022-11-20T00:09:14.230Z,1.75
2022-11-20T00:11:44.113Z,1.60
2022-11-20T00:14:14.262Z,1.70
2022-11-20T00:17:02.183Z,1.55
2022-11-20T00:19:32.689Z,1.63
2022-11-20T00:22:02.732Z,1.65
2022-11-20T00:24:32.865Z,2.40
2022-11-20T00:27:02.955Z,2.28
2022-11-20T00:29:32.873Z,2.22
2022-11-20T00:32:02.778Z,1.88
2022-11-20T00:34:32.682Z,1.90
2022-11-20T00:37:02.549Z,2.00
2022-11-20T00:39:32.405Z,2.13
2022-11-20T00:42:02.645Z,1.83
2022-11-20T00:44:33.682Z,2.17
2022-11-20T00:47:03.564Z,2.03
2022-11-20T00:49:34.982Z,1.85
2022-11-20T00:52:05.498Z,1.75
2022-11-20T00:54:35.607Z,2.30
2022-11-20T00:57:05.912Z,2.38
2022-11-20T00:59:36.155Z,2.38
2022-11-20T01:02:06.102Z,2.15
2022-11-20T01:04:35.966Z,2.72
2022-11-20T01:07:06.673Z,2.13
2022-11-20T01:09:36.743Z,1.92
2022-11-20T01:12:07.285Z,2.55
2022-11-20T01:14:38.182Z,2.47
2022-11-20T01:17:08.340Z,2.40
2022-11-20T01:19:38.424Z,2.10
2022-11-20T01:22:08.644Z,1.92
2022-11-20T01:24:38.534Z,2.00
2022-11-20T01:27:08.489Z,2.03
2022-11-20T01:29:38.338Z,2.17
2022-11-20T01:32:08.304Z,2.05
2022-11-20T01:34:38.481Z,2.00
2022-11-20T01:37:08.987Z,1.75
2022-11-20T01:39:39.403Z,2.10
2022-11-20T01:42:28.799Z,2.25
2022-11-20T01:45:02.912Z,2.45
2022-11-20T01:47:40.611Z,2.03
2022-11-20T01:50:24.491Z,2.58
2022-11-20T01:53:00.424Z,2.13
2022-11-20T01:55:47.789Z,2.72
2022-11-20T01:58:19.329Z,2.50
2022-11-20T02:00:50.110Z,2.50
2022-11-20T02:03:23.176Z,2.25
2022-11-20T02:06:13.718Z,2.40
2022-11-20T02:08:44.082Z,2.20
2022-11-20T02:11:14.987Z,2.42
2022-11-20T02:13:45.286Z,1.92
2022-11-20T02:16:17.767Z,2.45
2022-11-20T02:18:49.532Z,1.98
2022-11-20T02:21:48.359Z,1.90
2022-11-20T02:24:21.628Z,2.40
2022-11-20T02:27:05.762Z,2.13
2022-11-20T02:30:09.783Z,2.40
2022-11-20T02:35:20.780Z,2.40
2022-11-20T02:37:55.597Z,2.33
2022-11-20T02:40:25.746Z,2.38
2022-11-20T02:42:57.655Z,1.95
2022-11-20T02:45:28.378Z,2.20
2022-11-20T02:47:58.841Z,2.38
2022-11-20T02:50:28.942Z,2.33
2022-11-20T02:52:58.975Z,2.42
2022-11-20T02:55:29.542Z,2.30
2022-11-20T02:57:59.699Z,2.15
2022-11-20T03:00:29.618Z,1.98
2022-11-20T03:02:59.502Z,2.53
2022-11-20T03:05:29.368Z,2.80
2022-11-20T03:07:59.277Z,2.55
2022-11-20T03:10:29.648Z,2.53
2022-11-20T03:12:59.792Z,2.40
2022-11-20T03:15:30.545Z,3.05
2022-11-20T03:18:00.437Z,2.92
2022-11-20T03:20:30.328Z,2.65
2022-11-20T03:23:18.484Z,2.70
2022-11-20T03:25:49.003Z,2.75
2022-11-20T03:28:19.633Z,2.60
2022-11-20T03:30:49.886Z,2.35
2022-11-20T03:33:19.840Z,2.45
2022-11-20T03:35:49.698Z,2.38
2022-11-20T03:38:19.541Z,2.72
2022-11-20T03:40:50.983Z,2.20
2022-11-20T03:43:21.244Z,2.10
2022-11-20T03:45:51.090Z,1.63
2022-11-20T03:48:20.944Z,1.55
2022-11-20T03:50:51.238Z,2.35
2022-11-20T03:53:22.015Z,1.60
2022-11-20T03:55:55.212Z,1.25
2022-11-20T03:58:25.486Z,1.60
2022-11-20T04:00:55.410Z,1.50
2022-11-20T04:03:25.250Z,2.00
2022-11-20T04:05:55.546Z,1.88
2022-11-20T04:08:25.475Z,1.60
2022-11-20T04:10:55.600Z,1.20
2022-11-20T04:13:25.501Z,1.23
2022-11-20T04:16:00.519Z,1.33
2022-11-20T04:18:30.883Z,1.60
2022-11-20T04:21:01.900Z,1.63
2022-11-20T04:23:32.145Z,1.58
2022-11-20T04:26:10.797Z,1.23
2022-11-20T04:28:42.302Z,1.55
2022-11-20T04:31:17.758Z,1.25
2022-11-20T04:33:48.323Z,1.45
2022-11-20T04:36:21.088Z,1.40
2022-11-20T04:39:02.608Z,1.73
2022-11-20T04:41:35.765Z,1.45
2022-11-20T04:44:08.082Z,1.60
2022-11-20T04:46:41.727Z,1.33
2022-11-20T04:49:14.897Z,1.33
2022-11-20T04:51:45.291Z,1.30
2022-11-20T04:54:15.276Z,1.58
2022-11-20T04:56:45.147Z,1.83
2022-11-20T04:59:15.006Z,1.73
2022-11-20T05:01:45.469Z,1.10
2022-11-20T05:04:15.626Z,1.23
2022-11-20T05:06:45.622Z,1.42
2022-11-20T05:09:16.022Z,1.40
2022-11-20T05:11:50.320Z,1.48
2022-11-20T05:14:22.133Z,1.50
2022-11-20T05:16:52.364Z,1.27
2022-11-20T05:19:22.386Z,1.50
2022-11-20T05:21:52.380Z,1.60
2022-11-20T05:24:22.316Z,1.33
2022-11-20T05:26:52.749Z,1.33
2022-11-20T05:29:22.856Z,1.05
2022-11-20T05:31:53.191Z,1.25
2022-11-20T05:34:23.151Z,1.08
2022-11-20T05:36:53.503Z,1.23
2022-11-20T05:39:23.666Z,1.23
2022-11-20T05:42:13.802Z,1.30
2022-11-20T05:44:44.088Z,1.38
2022-11-20T05:47:13.953Z,1.23
2022-11-20T05:49:44.012Z,1.42
2022-11-20T05:52:13.920Z,1.13
2022-11-20T05:54:44.024Z,1.63
2022-11-20T05:57:13.890Z,1.30
2022-11-20T05:59:44.070Z,1.33
2022-11-20T06:02:14.378Z,1.10
2022-11-20T06:04:44.706Z,1.10
2022-11-20T06:07:14.993Z,1.20
2022-11-20T06:09:45.357Z,1.00
2022-11-20T06:12:15.230Z,1.30
2022-11-20T06:14:45.031Z,0.88
2022-11-20T06:17:15.767Z,2.05
2022-11-20T06:19:45.604Z,1.40
2022-11-20T06:22:15.930Z,1.30
2022-11-20T06:24:46.746Z,1.70
2022-11-20T06:27:17.456Z,1.33
2022-11-20T06:29:47.383Z,1.02
2022-11-20T06:32:17.231Z,1.05
2022-11-20T06:34:47.124Z,1.23
2022-11-20T06:37:17.216Z,1.20
2022-11-20T06:39:47.077Z,1.55
2022-11-20T06:42:17.428Z,1.50
2022-11-20T06:44:47.515Z,1.42
2022-11-20T06:47:17.383Z,1.20
2022-11-20T06:49:47.530Z,1.20
2022-11-20T06:52:17.350Z,1.20
2022-11-20T06:54:47.455Z,1.08
2022-11-20T06:57:17.366Z,0.95
2022-11-20T06:59:47.204Z,1.23
2022-11-20T07:02:17.983Z,0.90
2022-11-20T07:04:48.855Z,1.10
2022-11-20T07:07:18.986Z,1.27
2022-11-20T07:09:49.111Z,1.27
2022-11-20T07:12:18.954Z,1.13
2022-11-20T07:14:49.019Z,0.95
2022-11-20T07:17:18.810Z,1.02
2022-11-20T07:19:48.701Z,1.00
2022-11-20T07:22:18.551Z,1.05
2022-11-20T07:24:48.459Z,1.30
2022-11-20T07:27:18.322Z,1.25
2022-11-20T07:29:48.187Z,1.10
2022-11-20T07:32:18.078Z,1.17
2022-11-20T07:34:48.601Z,1.23
2022-11-20T07:37:18.710Z,1.02
2022-11-20T07:39:48.509Z,1.42
2022-11-20T07:42:18.611Z,1.35
2022-11-20T07:44:48.507Z,1.13
2022-11-20T07:47:18.356Z,1.00
2022-11-20T07:49:48.458Z,1.45
2022-11-20T07:52:19.283Z,1.73
2022-11-20T07:54:49.872Z,1.13
2022-11-20T07:57:21.225Z,1.02
2022-11-20T07:59:54.620Z,1.30
2022-11-20T08:02:25.537Z,1.17
2022-11-20T08:04:56.154Z,1.23
2022-11-20T08:07:26.076Z,2.03
2022-11-20T08:09:55.986Z,1.20
2022-11-20T08:12:44.147Z,1.73
2022-11-20T08:15:14.581Z,1.52
2022-11-20T08:18:02.001Z,1.27
2022-11-20T08:20:35.341Z,1.50
2022-11-20T08:23:08.689Z,1.33
2022-11-20T08:25:40.146Z,1.83
2022-11-20T08:28:20.251Z,1.13
2022-11-20T08:30:52.295Z,1.33
2022-11-20T08:33:22.412Z,1.10
2022-11-20T08:35:52.669Z,1.10
2022-11-20T08:38:22.913Z,1.27
2022-11-20T08:41:12.869Z,1.00
2022-11-20T08:43:42.945Z,1.13
2022-11-20T08:46:13.073Z,1.20
2022-11-20T08:48:43.570Z,1.42
2022-11-20T08:51:14.596Z,1.33
2022-11-20T08:53:45.442Z,1.08
2022-11-20T08:56:15.325Z,1.42
2022-11-20T08:59:10.309Z,1.52
2022-11-20T09:01:35.495Z,1.25
2022-11-20T09:04:06.878Z,1.30
2022-11-20T09:06:36.908Z,1.25
2022-11-20T09:09:07.807Z,1.38
2022-11-20T09:11:38.425Z,1.02
2022-11-20T09:14:08.678Z,1.33
2022-11-20T09:16:38.648Z,1.70
2022-11-20T09:19:34.224Z,1.00
2022-11-20T09:21:59.968Z,1.35
2022-11-20T09:24:30.875Z,2.40
2022-11-20T09:27:03.717Z,1.90
2022-11-20T09:29:33.831Z,1.50
2022-11-20T09:32:03.776Z,1.27
2022-11-20T09:34:34.484Z,1.30
2022-11-20T09:37:07.608Z,1.20
2022-11-20T09:39:40.905Z,1.13
2022-11-20T09:42:21.045Z,1.15
2022-11-20T09:45:43.588Z,1.40
2022-11-20T09:48:48.721Z,1.35
2022-11-20T09:51:24.804Z,1.23
2022-11-20T09:54:03.370Z,1.23
2022-11-20T09:56:35.897Z,1.23
2022-11-20T09:59:09.820Z,1.38
2022-11-20T10:01:42.874Z,2.00
2022-11-20T10:04:23.724Z,1.88
2022-11-20T10:07:30.349Z,1.08
2022-11-20T10:09:58.588Z,0.93
2022-11-20T10:13:03.252Z,1.25
2022-11-20T10:15:58.937Z,1.08
2022-11-20T10:18:38.992Z,1.10
2022-11-20T10:21:27.830Z,1.20
2022-11-20T10:24:16.347Z,1.05
2022-11-20T10:27:13.592Z,0.82
2022-11-20T10:29:48.534Z,1.17
2022-11-20T10:32:27.343Z,1.02
2022-11-20T10:35:11.885Z,0.90
2022-11-20T10:37:46.839Z,1.23
2022-11-20T10:40:40.224Z,1.10
2022-11-20T10:43:19.257Z,1.40
2022-11-20T10:46:13.091Z,1.00
2022-11-20T10:48:46.452Z,1.00
2022-11-20T10:51:41.022Z,1.13
2022-11-20T10:54:17.359Z,1.20
2022-11-20T10:56:54.428Z,1.15
2022-11-20T10:59:41.378Z,1.35
2022-11-20T11:02:23.896Z,1.17
2022-11-20T11:04:56.240Z,1.50
2022-11-20T11:07:54.615Z,0.80
2022-11-20T11:10:47.332Z,1.10
2022-11-20T11:13:24.673Z,1.35
2022-11-20T11:15:56.022Z,1.08
2022-11-20T11:18:33.284Z,1.40
2022-11-20T11:21:06.826Z,1.30
2022-11-20T11:23:40.976Z,1.15
2022-11-20T11:26:31.639Z,1.05
2022-11-20T11:29:05.624Z,1.20
2022-11-20T11:31:38.080Z,1.10
2022-11-20T11:34:19.540Z,1.27
2022-11-20T11:37:00.647Z,1.48
2022-11-20T11:39:33.492Z,1.42
2022-11-20T11:42:04.245Z,1.10
2022-11-20T11:44:55.053Z,1.52
2022-11-20T11:47:34.639Z,1.13
2022-11-20T11:50:29.783Z,0.95
2022-11-20T11:53:12.544Z,1.35
2022-11-20T11:56:10.947Z,1.60
2022-11-20T11:58:51.808Z,1.55
2022-11-20T12:01:45.734Z,1.30
2022-11-20T12:04:57.208Z,1.40
2022-11-20T12:07:47.356Z,1.50
2022-11-20T12:10:41.483Z,1.27
2022-11-20T12:13:39.791Z,1.90
2022-11-20T12:16:16.068Z,1.73
2022-11-20T12:18:48.311Z,1.23
2022-11-20T12:24:02.256Z,1.42
2022-11-20T12:26:38.066Z,1.10
2022-11-20T12:29:39.436Z,1.40
2022-11-20T12:32:29.959Z,1.20
2022-11-20T12:35:00.476Z,1.20
2022-11-20T12:37:51.456Z,1.33
2022-11-20T12:40:49.021Z,1.15
2022-11-20T12:43:41.525Z,1.33
2022-11-20T12:46:48.788Z,1.40
2022-11-20T12:49:31.600Z,1.20
2022-11-20T12:52:05.101Z,1.40
2022-11-20T12:55:13.668Z,3.28
2022-11-20T12:58:11.806Z,2.03
2022-11-20T13:00:54.069Z,1.40
2022-11-20T13:03:43.754Z,1.33
2022-11-20T13:06:20.083Z,1.50
2022-11-20T13:08:58.471Z,1.70
2022-11-20T13:14:33.863Z,2.00
2022-11-20T13:17:28.961Z,1.50
2022-11-20T13:20:03.686Z,1.40
2022-11-20T13:22:56.859Z,1.08
2022-11-20T13:25:31.322Z,1.10
2022-11-20T13:28:04.291Z,1.23
2022-11-20T13:30:35.903Z,1.38
2022-11-20T13:33:26.352Z,1.10
2022-11-20T13:36:02.871Z,1.23
2022-11-20T13:38:49.374Z,1.30
2022-11-20T13:41:43.195Z,1.40
2022-11-20T13:44:13.496Z,1.40
2022-11-20T13:46:48.595Z,1.20
2022-11-20T13:49:30.204Z,1.08
2022-11-20T13:52:36.727Z,1.10
2022-11-20T13:55:15.719Z,1.50
2022-11-20T13:57:49.504Z,1.42
2022-11-20T14:00:25.050Z,2.75
2022-11-20T14:03:02.856Z,1.23
2022-11-20T14:05:38.579Z,1.40
2022-11-20T14:08:28.673Z,1.40
2022-11-20T14:11:20.661Z,1.20
2022-11-20T14:14:17.664Z,1.35
2022-11-20T14:16:48.350Z,1.20
2022-11-20T14:19:33.369Z,1.08
2022-11-20T14:22:25.733Z,1.23
2022-11-20T14:25:20.630Z,1.45
2022-11-20T14:27:56.202Z,1.30
2022-11-20T14:30:29.468Z,1.20
2022-11-20T14:33:06.226Z,1.38
2022-11-20T14:35:43.142Z,1.20
2022-11-20T14:38:16.918Z,2.67
2022-11-20T14:40:47.683Z,1.25
2022-11-20T14:43:32.089Z,1.30
2022-11-20T14:46:11.622Z,1.02
2022-11-20T14:48:47.006Z,1.20
2022-11-20T14:51:43.321Z,1.50
2022-11-20T14:54:16.405Z,1.45
2022-11-20T14:57:02.013Z,1.50
2022-11-20T14:59:35.863Z,1.20
2022-11-20T15:02:11.245Z,1.20
2022-11-20T15:05:01.405Z,1.42
2022-11-20T15:07:36.309Z,1.02
2022-11-20T15:10:15.072Z,1.38
2022-11-20T15:12:56.769Z,1.00
2022-11-20T15:15:58.846Z,1.08
2022-11-20T15:18:54.870Z,1.23
2022-11-20T15:21:26.057Z,1.02
2022-11-20T15:23:56.427Z,1.10
2022-11-20T15:26:30.885Z,1.15
2022-11-20T15:29:01.762Z,1.23
2022-11-20T15:31:31.654Z,0.90
2022-11-20T15:34:01.753Z,1.33
2022-11-20T15:36:32.524Z,1.25
2022-11-20T15:39:02.831Z,0.95
2022-11-20T15:41:32.658Z,1.20
2022-11-20T15:44:02.586Z,0.82
2022-11-20T15:46:39.610Z,1.42
2022-11-20T15:49:15.556Z,1.02
2022-11-20T15:51:52.254Z,1.08
2022-11-20T15:54:25.105Z,1.10
2022-11-20T15:56:55.438Z,1.30
2022-11-20T15:59:26.650Z,0.95
2022-11-20T16:01:57.327Z,1.38
2022-11-20T16:04:27.243Z,1.02
2022-11-20T16:06:57.890Z,1.10
2022-11-20T16:09:28.587Z,0.90
2022-11-20T16:12:01.228Z,0.88
2022-11-20T16:14:49.729Z,0.88
2022-11-20T16:17:39.610Z,0.88
2022-11-20T16:20:14.220Z,1.08
2022-11-20T16:22:44.708Z,1.38
2022-11-20T16:25:14.626Z,1.42
2022-11-20T16:27:44.503Z,1.13
2022-11-20T16:30:15.157Z,0.95
2022-11-20T16:32:45.439Z,0.80
2022-11-20T16:35:15.723Z,1.10
2022-11-20T16:37:45.793Z,1.42
2022-11-20T16:40:16.293Z,1.30
2022-11-20T16:42:47.169Z,1.00
2022-11-20T16:45:23.100Z,0.77
2022-11-20T16:47:55.975Z,0.90
2022-11-20T16:50:26.271Z,0.90
2022-11-20T16:52:57.642Z,0.95
2022-11-20T16:55:28.084Z,0.93
2022-11-20T16:57:57.958Z,0.70
2022-11-20T17:00:28.281Z,1.15
2022-11-20T17:02:58.574Z,0.90
2022-11-20T17:05:31.085Z,0.90
2022-11-20T17:08:01.415Z,0.90
2022-11-20T17:10:32.002Z,0.90
2022-11-20T17:13:02.595Z,1.10
2022-11-20T17:15:33.313Z,0.70
2022-11-20T17:18:04.718Z,0.88
2022-11-20T17:20:35.331Z,1.13
2022-11-20T17:23:05.754Z,0.98
2022-11-20T17:25:35.763Z,0.88
2022-11-20T17:28:05.666Z,0.95
2022-11-20T17:30:36.033Z,0.80
2022-11-20T17:33:05.936Z,1.27
2022-11-20T17:35:38.497Z,0.90
2022-11-20T17:38:09.096Z,1.00
2022-11-20T17:40:39.210Z,1.10
2022-11-20T17:43:09.513Z,1.17
2022-11-20T17:45:39.786Z,0.85
2022-11-20T17:48:09.792Z,1.17
2022-11-20T17:50:40.537Z,1.05
2022-11-20T17:53:10.444Z,0.90
2022-11-20T17:55:58.667Z,1.00
2022-11-20T17:58:32.084Z,0.98
2022-11-20T18:01:12.843Z,0.90
2022-11-20T18:03:43.670Z,1.02
2022-11-20T18:06:15.979Z,0.93
2022-11-20T18:08:46.788Z,1.00
2022-11-20T18:11:21.432Z,1.10
2022-11-20T18:14:16.786Z,1.20
2022-11-20T18:16:50.306Z,0.77
2022-11-20T18:19:23.353Z,1.00
2022-11-20T18:21:53.695Z,0.90
2022-11-20T18:24:24.752Z,1.10
2022-11-20T18:26:55.342Z,1.00
2022-11-20T18:29:25.624Z,1.52
2022-11-20T18:31:56.356Z,0.90
2022-11-20T18:34:26.940Z,1.30
2022-11-20T18:36:57.825Z,1.02
2022-11-20T18:39:27.794Z,1.10
2022-11-20T18:42:15.671Z,0.93
2022-11-20T18:44:52.531Z,0.93
2022-11-20T18:47:32.019Z,1.20
2022-11-20T18:50:03.445Z,1.05
2022-11-20T18:52:41.624Z,1.08
2022-11-20T18:55:13.176Z,1.10
2022-11-20T18:57:43.645Z,0.95
2022-11-20T19:00:16.632Z,0.98
2022-11-20T19:02:46.952Z,1.02
2022-11-20T19:05:17.844Z,0.88
2022-11-20T19:07:48.022Z,1.20
2022-11-20T19:10:21.369Z,0.90
2022-11-20T19:12:51.932Z,0.80
2022-11-20T19:15:22.331Z,1.00
2022-11-20T19:17:53.242Z,1.20
2022-11-20T19:20:23.827Z,1.65
2022-11-20T19:22:54.818Z,1.02
2022-11-20T19:25:24.805Z,1.00
2022-11-20T19:27:55.000Z,1.08
2022-11-20T19:30:24.899Z,0.90
2022-11-20T19:32:55.225Z,1.30
2022-11-20T19:35:26.018Z,1.40
2022-11-20T19:38:00.236Z,1.00
2022-11-20T19:40:34.675Z,1.08
2022-11-20T19:43:06.317Z,1.00
2022-11-20T19:48:08.375Z,0.95
2022-11-20T19:50:38.959Z,1.45
2022-11-20T19:53:08.945Z,1.00
2022-11-20T19:55:39.197Z,0.70
2022-11-20T19:58:09.359Z,0.95
2022-11-20T20:00:39.280Z,0.93
2022-11-20T20:03:09.154Z,1.10
2022-11-20T20:05:39.390Z,0.98
2022-11-20T20:08:09.604Z,1.23
2022-11-20T20:10:40.372Z,0.90
2022-11-20T20:13:10.870Z,0.90
2022-11-20T20:15:43.450Z,1.08
2022-11-20T20:18:14.020Z,1.08
2022-11-20T20:20:45.368Z,0.90
2022-11-20T20:23:15.776Z,1.10
2022-11-20T20:25:50.329Z,1.45
2022-11-20T20:28:21.047Z,0.93
2022-11-20T20:30:51.827Z,1.17
2022-11-20T20:33:22.092Z,1.00
2022-11-20T20:35:51.975Z,1.13
2022-11-20T20:38:23.515Z,1.08
2022-11-20T20:40:54.242Z,1.10
2022-11-20T20:43:24.123Z,0.73
2022-11-20T20:45:54.297Z,0.90
2022-11-20T20:48:25.587Z,1.00
2022-11-20T20:51:04.523Z,2.38
2022-11-20T20:53:35.451Z,1.05
2022-11-20T20:56:05.629Z,1.00
2022-11-20T20:58:35.624Z,1.30
2022-11-20T21:01:08.477Z,1.65
2022-11-20T21:03:39.770Z,1.20
2022-11-20T21:06:11.432Z,0.90
2022-11-20T21:08:44.270Z,0.80
2022-11-20T21:11:17.123Z,0.90
2022-11-20T21:13:48.878Z,1.02
2022-11-20T21:16:21.959Z,1.13
2022-11-20T21:18:52.402Z,1.23
2022-11-20T21:21:40.539Z,1.10
2022-11-20T21:24:10.984Z,0.88
2022-11-20T21:26:41.291Z,1.27
2022-11-20T21:29:11.317Z,1.33
2022-11-20T21:31:41.168Z,1.00
2022-11-20T21:34:14.114Z,1.27
2022-11-20T21:36:45.450Z,1.13
2022-11-20T21:39:16.773Z,1.45
2022-11-20T21:41:47.172Z,1.45
2022-11-20T21:44:33.597Z,2.72
2022-11-20T21:47:04.101Z,2.10
2022-11-20T21:49:34.272Z,1.75
2022-11-20T21:52:04.154Z,1.77
2022-11-20T21:54:37.862Z,1.63
2022-11-20T21:57:08.685Z,1.90
2022-11-20T21:59:38.805Z,1.50
2022-11-20T22:02:09.168Z,1.45
2022-11-20T22:04:39.423Z,1.30
2022-11-20T22:07:09.928Z,1.42
2022-11-20T22:09:41.239Z,1.60
2022-11-20T22:12:11.366Z,1.55
2022-11-20T22:14:41.469Z,1.48
2022-11-20T22:17:15.865Z,1.48
2022-11-20T22:19:47.366Z,1.50
2022-11-20T22:22:17.504Z,1.23
2022-11-20T22:24:47.604Z,2.35
2022-11-20T22:27:17.491Z,2.10
2022-11-20T22:29:47.936Z,1.42
2022-11-20T22:32:20.155Z,1.52
2022-11-20T22:34:51.794Z,1.90
2022-11-20T22:37:22.906Z,1.90
2022-11-20T22:39:53.131Z,1.77
2022-11-20T22:42:23.042Z,2.13
2022-11-20T22:44:53.152Z,1.73
2022-11-20T22:47:23.032Z,2.10
2022-11-20T22:49:53.167Z,1.60
2022-11-20T22:52:23.005Z,1.67
2022-11-20T22:54:52.864Z,1.63
2022-11-20T22:57:22.727Z,2.50
2022-11-20T22:59:52.623Z,1.60
2022-11-20T23:02:22.512Z,1.40
2022-11-20T23:04:52.809Z,1.55
2022-11-20T23:07:22.730Z,1.77
2022-11-20T23:09:53.100Z,1.85
2022-11-20T23:12:22.929Z,1.52
2022-11-20T23:14:53.439Z,1.60
2022-11-20T23:17:23.366Z,1.77
2022-11-20T23:19:53.248Z,1.60
2022-11-20T23:22:23.361Z,1.80
2022-11-20T23:24:53.255Z,1.55
2022-11-20T23:27:28.147Z,1.65
2022-11-20T23:30:00.309Z,1.92
2022-11-20T23:32:31.456Z,2.00
2022-11-20T23:35:01.533Z,1.85
2022-11-20T23:37:31.838Z,1.73
2022-11-20T23:40:01.793Z,1.95
2022-11-20T23:42:31.708Z,2.15
2022-11-20T23:45:01.713Z,1.90
2022-11-20T23:47:31.595Z,1.60
2022-11-20T23:50:01.483Z,1.98
2022-11-20T23:52:31.400Z,2.00
2022-11-20T23:55:01.308Z,1.95
2022-11-20T23:57:31.140Z,2.67
